Meteopurmerend
purmerend
Purmerend - Baaienwijk



My webcam  My webcam


Onweer radar Meer informatie blitzortung!


Regen radar Meer informatie rain snow radar


Bezoek onze andere website:

CandyAppleRed WebdesignWebdesign Purmerend Candy Apple Red

MeteopurmerendBlog

Template documentation
and downloads



Het weer levert geen direct gevaar op.    Er zijn geen waarschuwingen afgegeven.

METAR rapporten vliegvelden

   
EHAM - Amsterdam
Gewijzigd: 24-10-2018 04:25
Wat regen mogelijk, Bewolking  
Wat regen mogelijk, Bewolking  
   Wind: WNW 33.3 km/h
Wind: WNW 33.3 km/h
Temperatuur: 15°C
Dauwpunt: 13°C
Vochtigheid: 88%
Barometer: 1022 hPa
Bewolking: Overcast
Zicht: meer dan 10 km
Bewolking: Bewolking 1500 ft
EHAM 240225Z 30018KT 270V330 9999 -RA OVC015 15/13 Q1022 NOSIG
EHRD - Rotterdam
Gewijzigd: 24-10-2018 04:25
Bewolking  
Bewolking  
   Wind: WNW 24.1 km/h
Wind: WNW 24.1 km/h
Temperatuur: 15°C
Dauwpunt: 13°C
Vochtigheid: 88%
Barometer: 1023 hPa
Bewolking: Overcast
Zicht: meer dan 10 km
Bewolking: Gedeeltelijk bewolkt 1300 ft,
Bewolking 1500 ft
EHRD 240225Z AUTO 30013KT 250V010 9999 SCT013 OVC015 15/13 Q1023 NOSIG
EHLE - Lelystad
Gewijzigd: 01-01-1970 01:00
Verouderd
  
  
   Wind: Kalm
Wind: Kalm
EHBK - Maastricht
Gewijzigd: 24-10-2018 04:25
Bewolking  
Bewolking  
   Wind: WZW 14.8 km/h
Wind: WZW 14.8 km/h
Temperatuur: 12°C
Dauwpunt: 11°C
Vochtigheid: 94%
Barometer: 1023 hPa
Bewolking: Overcast
Zicht: 9 km
Bewolking: Bewolking 700 ft
EHBK 240225Z AUTO 25008KT 210V310 9000 OVC007 12/11 Q1023
ELLX - Luxemburg
Gewijzigd: 24-10-2018 04:20
Bewolking  
Bewolking  
   Wind: WZW 18.5 km/h
Wind: WZW 18.5 km/h
Temperatuur: 9°C
Voelt als: 6°C
Dauwpunt: 7°C
Vochtigheid: 87%
Barometer: 1024 hPa
Bewolking: Overcast
Zicht: meer dan 10 km
Bewolking: Bewolking 700 ft
ELLX 240220Z AUTO 25010KT 9999 OVC007/// 09/07 Q1024 NOSIG
EBOS - Oostende
Gewijzigd: 24-10-2018 04:20
Grotendeels bewolkt  
Grotendeels bewolkt  
   Wind: WNW 24.1 km/h
Wind: WNW 24.1 km/h
Temperatuur: 14°C
Dauwpunt: 11°C
Vochtigheid: 82%
Barometer: 1026 hPa
Bewolking: Mostly Cloudy
Zicht: meer dan 10 km
Bewolking: Grotendeels bewolkt 1200 ft
EBOS 240220Z 30013KT 9999 BKN012 14/11 Q1026 NOSIG

Script ontwikkeld door  Saratoga-weather.org Aangepast voor de template door  Weerstation Leuven

U vindt ons ook hier:

UK Metoffice

European Weather Network

Weather Underground

AWEKAS

Citizen Weather Observer Program (CWOP)

HAMweather, WeatherForYou, PWS Weather

Apparatuur in gebruik:

Weerstation
Davis Vue

Weerprogramma
Meteobridge

Weercomputer
QR code

Webleverancier
Wned

Davis Vue

Meteobridge

QR code

Wned